If you wish to contribute or participate in the discussions about articles you are invited to join SKYbrary as a registered user

 Actions

Deauville-Saint-Gatien Airport

From SKYbrary Wiki

LFRG
Airport
ICAO: LFRG – IATA: DOL
Summary
Name Deauville-Saint-Gatien Airport
Region Europe
Territory France FR.gif
Location , Basse-Normandie
Serving Deauville
Elevation 145.999 m
479 ft
479 ft145.999 m
Type medium airport
Coordinates 49° 21' 55.22" N, 0° 9' 15.50" E
Runways
Designator Length Width Surface ROPS
12/30 2550 m8,366.142 ft
45 m147.638 ft
ASP yes/yes


METAR
Observation LFRG 140500Z AUTO 26021KT 9999 OVC042 08/04 Q0994
Station ST GATIEN
Date/Time 14 December 2019 05:00:00
Wind direction 260°
Wind speed 21 kts
Lowest cloud amount overcast
Temperature 8°C
Dew point 4°C
Humidity 75%
QNH 994 hPa
Weather condition n/a